sensor_id;sensor_type;location;lat;lon;timestamp;temperature;humidity
19892;DHT22;10108;50.142;8.724;2022-09-03T00:01:02;18.90;1.00
19892;DHT22;10108;50.142;8.724;2022-09-03T00:03:56;18.90;1.00
19892;DHT22;10108;50.142;8.724;2022-09-03T00:06:26;18.90;1.00
19892;DHT22;10108;50.142;8.724;2022-09-03T00:14:24;18.80;1.00
19892;DHT22;10108;50.142;8.724;2022-09-03T00:17:14;18.80;1.00
19892;DHT22;10108;50.142;8.724;2022-09-03T00:20:00;18.80;1.00
19892;DHT22;10108;50.142;8.724;2022-09-03T00:22:34;18.80;1.00
19892;DHT22;10108;50.142;8.724;2022-09-03T00:25:04;18.80;1.00
19892;DHT22;10108;50.142;8.724;2022-09-03T00:27:36;18.70;1.00
19892;DHT22;10108;50.142;8.724;2022-09-03T00:30:09;18.70;1.00
19892;DHT22;10108;50.142;8.724;2022-09-03T00:32:40;18.70;1.00
19892;DHT22;10108;50.142;8.724;2022-09-03T00:35:17;18.70;1.00
19892;DHT22;10108;50.142;8.724;2022-09-03T00:37:45;18.70;1.00
19892;DHT22;10108;50.142;8.724;2022-09-03T00:40:51;18.70;1.00
19892;DHT22;10108;50.142;8.724;2022-09-03T00:46:13;18.60;1.00
19892;DHT22;10108;50.142;8.724;2022-09-03T00:51:49;18.60;1.00
19892;DHT22;10108;50.142;8.724;2022-09-03T00:55:04;18.60;1.00
19892;DHT22;10108;50.142;8.724;2022-09-03T00:57:25;18.60;1.00
19892;DHT22;10108;50.142;8.724;2022-09-03T01:08:42;18.50;1.00
19892;DHT22;10108;50.142;8.724;2022-09-03T01:11:43;18.50;1.00
19892;DHT22;10108;50.142;8.724;2022-09-03T01:17:29;18.50;1.00
19892;DHT22;10108;50.142;8.724;2022-09-03T01:20:10;18.40;1.00
19892;DHT22;10108;50.142;8.724;2022-09-03T01:30:14;18.30;1.00
19892;DHT22;10108;50.142;8.724;2022-09-03T01:33:01;18.30;1.00
19892;DHT22;10108;50.142;8.724;2022-09-03T01:38:17;18.30;1.00
19892;DHT22;10108;50.142;8.724;2022-09-03T01:43:45;18.30;1.00
19892;DHT22;10108;50.142;8.724;2022-09-03T01:46:24;18.30;1.00
19892;DHT22;10108;50.142;8.724;2022-09-03T01:49:16;18.30;1.00
19892;DHT22;10108;50.142;8.724;2022-09-03T01:51:55;18.30;1.00
19892;DHT22;10108;50.142;8.724;2022-09-03T01:57:26;18.30;1.00
19892;DHT22;10108;50.142;8.724;2022-09-03T02:00:00;18.20;1.00
19892;DHT22;10108;50.142;8.724;2022-09-03T02:02:39;18.20;1.00
19892;DHT22;10108;50.142;8.724;2022-09-03T02:07:56;18.10;1.00
19892;DHT22;10108;50.142;8.724;2022-09-03T02:10:39;18.10;1.00
19892;DHT22;10108;50.142;8.724;2022-09-03T02:13:10;18.10;1.00
19892;DHT22;10108;50.142;8.724;2022-09-03T02:15:40;18.10;1.00
19892;DHT22;10108;50.142;8.724;2022-09-03T02:18:11;18.10;1.00
19892;DHT22;10108;50.142;8.724;2022-09-03T02:20:39;18.10;1.00
19892;DHT22;10108;50.142;8.724;2022-09-03T02:23:05;18.10;1.00
19892;DHT22;10108;50.142;8.724;2022-09-03T02:25:36;18.10;1.00
19892;DHT22;10108;50.142;8.724;2022-09-03T02:28:05;18.10;1.00
19892;DHT22;10108;50.142;8.724;2022-09-03T02:30:32;18.10;1.00
19892;DHT22;10108;50.142;8.724;2022-09-03T02:32:59;18.10;1.00
19892;DHT22;10108;50.142;8.724;2022-09-03T02:35:25;18.10;1.00
19892;DHT22;10108;50.142;8.724;2022-09-03T02:37:51;18.10;1.00
19892;DHT22;10108;50.142;8.724;2022-09-03T02:40:17;18.10;1.00
19892;DHT22;10108;50.142;8.724;2022-09-03T02:42:45;18.20;1.00
19892;DHT22;10108;50.142;8.724;2022-09-03T02:45:27;18.20;1.00
19892;DHT22;10108;50.142;8.724;2022-09-03T02:47:55;18.20;1.00
19892;DHT22;10108;50.142;8.724;2022-09-03T02:50:23;18.20;1.00
19892;DHT22;10108;50.142;8.724;2022-09-03T02:52:50;18.20;1.00
19892;DHT22;10108;50.142;8.724;2022-09-03T02:55:17;18.20;1.00
19892;DHT22;10108;50.142;8.724;2022-09-03T02:57:45;18.30;1.00
19892;DHT22;10108;50.142;8.724;2022-09-03T03:00:12;18.30;1.00
19892;DHT22;10108;50.142;8.724;2022-09-03T03:02:38;18.30;1.00
19892;DHT22;10108;50.142;8.724;2022-09-03T03:05:05;18.30;1.00
19892;DHT22;10108;50.142;8.724;2022-09-03T03:07:36;18.30;1.00
19892;DHT22;10108;50.142;8.724;2022-09-03T03:10:03;18.30;1.00
19892;DHT22;10108;50.142;8.724;2022-09-03T03:12:29;18.30;1.00
19892;DHT22;10108;50.142;8.724;2022-09-03T03:14:55;18.30;1.00
19892;DHT22;10108;50.142;8.724;2022-09-03T03:17:21;18.30;1.00
19892;DHT22;10108;50.142;8.724;2022-09-03T03:19:47;18.30;1.00
19892;DHT22;10108;50.142;8.724;2022-09-03T03:22:14;18.40;1.00
19892;DHT22;10108;50.142;8.724;2022-09-03T03:24:40;18.40;1.00
19892;DHT22;10108;50.142;8.724;2022-09-03T03:27:06;18.40;1.00
19892;DHT22;10108;50.142;8.724;2022-09-03T03:29:35;18.40;1.00
19892;DHT22;10108;50.142;8.724;2022-09-03T03:32:01;18.40;1.00
19892;DHT22;10108;50.142;8.724;2022-09-03T03:34:27;18.40;1.00
19892;DHT22;10108;50.142;8.724;2022-09-03T03:36:53;18.40;1.00
19892;DHT22;10108;50.142;8.724;2022-09-03T03:39:20;18.40;1.00
19892;DHT22;10108;50.142;8.724;2022-09-03T03:41:46;18.30;1.00
19892;DHT22;10108;50.142;8.724;2022-09-03T03:44:12;18.30;1.00
19892;DHT22;10108;50.142;8.724;2022-09-03T03:46:40;18.40;1.00
19892;DHT22;10108;50.142;8.724;2022-09-03T03:49:07;18.30;1.00
19892;DHT22;10108;50.142;8.724;2022-09-03T03:51:34;18.30;1.00
19892;DHT22;10108;50.142;8.724;2022-09-03T03:54:01;18.30;1.00
19892;DHT22;10108;50.142;8.724;2022-09-03T03:56:27;18.40;1.00
19892;DHT22;10108;50.142;8.724;2022-09-03T03:58:54;18.40;1.00
19892;DHT22;10108;50.142;8.724;2022-09-03T04:01:22;18.40;1.00
19892;DHT22;10108;50.142;8.724;2022-09-03T04:03:49;18.40;1.00
19892;DHT22;10108;50.142;8.724;2022-09-03T04:06:17;18.40;1.00
19892;DHT22;10108;50.142;8.724;2022-09-03T04:08:46;18.40;1.00
19892;DHT22;10108;50.142;8.724;2022-09-03T04:11:15;18.40;1.00
19892;DHT22;10108;50.142;8.724;2022-09-03T04:13:43;18.40;1.00
19892;DHT22;10108;50.142;8.724;2022-09-03T04:16:12;18.40;1.00
19892;DHT22;10108;50.142;8.724;2022-09-03T04:18:39;18.50;1.00
19892;DHT22;10108;50.142;8.724;2022-09-03T04:21:08;18.50;1.00
19892;DHT22;10108;50.142;8.724;2022-09-03T04:23:36;18.50;1.00
19892;DHT22;10108;50.142;8.724;2022-09-03T04:26:04;18.40;1.00
19892;DHT22;10108;50.142;8.724;2022-09-03T04:28:31;18.40;1.00
19892;DHT22;10108;50.142;8.724;2022-09-03T04:31:05;18.40;1.00
19892;DHT22;10108;50.142;8.724;2022-09-03T04:33:32;18.40;1.00
19892;DHT22;10108;50.142;8.724;2022-09-03T04:36:09;18.40;1.00
19892;DHT22;10108;50.142;8.724;2022-09-03T04:38:38;18.50;1.00
19892;DHT22;10108;50.142;8.724;2022-09-03T04:41:06;18.50;1.00
19892;DHT22;10108;50.142;8.724;2022-09-03T04:43:32;18.50;1.00
19892;DHT22;10108;50.142;8.724;2022-09-03T04:46:00;18.60;1.00
19892;DHT22;10108;50.142;8.724;2022-09-03T04:48:28;18.60;1.00
19892;DHT22;10108;50.142;8.724;2022-09-03T04:51:01;18.60;1.00
19892;DHT22;10108;50.142;8.724;2022-09-03T04:53:33;18.60;1.00
19892;DHT22;10108;50.142;8.724;2022-09-03T04:56:00;18.60;1.00
19892;DHT22;10108;50.142;8.724;2022-09-03T04:58:26;18.60;1.00
19892;DHT22;10108;50.142;8.724;2022-09-03T05:00:53;18.60;1.00
19892;DHT22;10108;50.142;8.724;2022-09-03T05:03:19;18.60;1.00
19892;DHT22;10108;50.142;8.724;2022-09-03T05:05:54;18.60;1.00
19892;DHT22;10108;50.142;8.724;2022-09-03T05:08:21;18.60;1.00
19892;DHT22;10108;50.142;8.724;2022-09-03T05:10:48;18.60;1.00
19892;DHT22;10108;50.142;8.724;2022-09-03T05:13:14;18.60;1.00
19892;DHT22;10108;50.142;8.724;2022-09-03T05:15:40;18.60;1.00
19892;DHT22;10108;50.142;8.724;2022-09-03T05:18:08;18.60;1.00
19892;DHT22;10108;50.142;8.724;2022-09-03T05:20:35;18.60;1.00
19892;DHT22;10108;50.142;8.724;2022-09-03T05:23:02;18.60;1.00
19892;DHT22;10108;50.142;8.724;2022-09-03T05:25:31;18.60;1.00
19892;DHT22;10108;50.142;8.724;2022-09-03T05:27:58;18.70;1.00
19892;DHT22;10108;50.142;8.724;2022-09-03T05:30:24;18.70;1.00
19892;DHT22;10108;50.142;8.724;2022-09-03T05:32:50;18.70;1.00
19892;DHT22;10108;50.142;8.724;2022-09-03T05:35:17;18.70;1.00
19892;DHT22;10108;50.142;8.724;2022-09-03T05:37:44;18.80;1.00
19892;DHT22;10108;50.142;8.724;2022-09-03T05:40:10;18.70;1.00
19892;DHT22;10108;50.142;8.724;2022-09-03T05:42:37;18.60;1.00
19892;DHT22;10108;50.142;8.724;2022-09-03T05:45:08;18.50;1.00
19892;DHT22;10108;50.142;8.724;2022-09-03T05:47:37;18.40;1.00
19892;DHT22;10108;50.142;8.724;2022-09-03T05:50:07;18.30;1.00
19892;DHT22;10108;50.142;8.724;2022-09-03T05:52:36;18.20;1.00
19892;DHT22;10108;50.142;8.724;2022-09-03T05:55:03;18.10;1.00
19892;DHT22;10108;50.142;8.724;2022-09-03T05:57:29;18.20;1.00
19892;DHT22;10108;50.142;8.724;2022-09-03T05:59:55;18.20;1.00
19892;DHT22;10108;50.142;8.724;2022-09-03T06:02:22;18.30;1.00
19892;DHT22;10108;50.142;8.724;2022-09-03T06:04:48;18.40;1.00
19892;DHT22;10108;50.142;8.724;2022-09-03T06:07:16;18.50;1.00
19892;DHT22;10108;50.142;8.724;2022-09-03T06:09:42;18.60;1.00
19892;DHT22;10108;50.142;8.724;2022-09-03T06:12:08;18.70;1.00
19892;DHT22;10108;50.142;8.724;2022-09-03T06:14:34;18.80;1.00
19892;DHT22;10108;50.142;8.724;2022-09-03T06:17:00;18.80;1.00
19892;DHT22;10108;50.142;8.724;2022-09-03T06:19:27;18.90;1.00
19892;DHT22;10108;50.142;8.724;2022-09-03T06:21:53;18.90;1.00
19892;DHT22;10108;50.142;8.724;2022-09-03T06:24:20;18.90;1.00
19892;DHT22;10108;50.142;8.724;2022-09-03T06:26:52;18.90;1.00
19892;DHT22;10108;50.142;8.724;2022-09-03T06:29:18;18.90;1.00
19892;DHT22;10108;50.142;8.724;2022-09-03T06:31:45;18.90;1.00
19892;DHT22;10108;50.142;8.724;2022-09-03T06:34:13;19.00;1.00
19892;DHT22;10108;50.142;8.724;2022-09-03T06:36:39;19.00;1.00
19892;DHT22;10108;50.142;8.724;2022-09-03T06:39:06;18.90;1.00
19892;DHT22;10108;50.142;8.724;2022-09-03T06:41:32;18.90;1.00
19892;DHT22;10108;50.142;8.724;2022-09-03T06:44:02;18.80;1.00
19892;DHT22;10108;50.142;8.724;2022-09-03T06:46:34;18.70;1.00
19892;DHT22;10108;50.142;8.724;2022-09-03T06:49:00;18.60;1.00
19892;DHT22;10108;50.142;8.724;2022-09-03T06:51:28;18.60;1.00
19892;DHT22;10108;50.142;8.724;2022-09-03T06:54:06;18.60;1.00
19892;DHT22;10108;50.142;8.724;2022-09-03T06:56:33;18.60;1.00
19892;DHT22;10108;50.142;8.724;2022-09-03T06:59:04;18.60;1.00
19892;DHT22;10108;50.142;8.724;2022-09-03T07:01:31;18.60;1.00
19892;DHT22;10108;50.142;8.724;2022-09-03T07:03:59;18.60;1.00
19892;DHT22;10108;50.142;8.724;2022-09-03T07:06:28;18.60;1.00
19892;DHT22;10108;50.142;8.724;2022-09-03T07:08:55;18.70;1.00
19892;DHT22;10108;50.142;8.724;2022-09-03T07:11:24;18.80;1.00
19892;DHT22;10108;50.142;8.724;2022-09-03T07:13:52;18.90;1.00
19892;DHT22;10108;50.142;8.724;2022-09-03T07:16:21;18.80;1.00
19892;DHT22;10108;50.142;8.724;2022-09-03T07:18:48;18.70;1.00
19892;DHT22;10108;50.142;8.724;2022-09-03T07:21:19;18.50;1.00
19892;DHT22;10108;50.142;8.724;2022-09-03T07:23:46;18.30;1.00
19892;DHT22;10108;50.142;8.724;2022-09-03T07:26:18;18.10;1.00
19892;DHT22;10108;50.142;8.724;2022-09-03T07:28:45;18.00;1.00
19892;DHT22;10108;50.142;8.724;2022-09-03T07:31:15;18.00;1.00
19892;DHT22;10108;50.142;8.724;2022-09-03T07:33:43;18.00;1.00
19892;DHT22;10108;50.142;8.724;2022-09-03T07:36:11;18.00;1.00
19892;DHT22;10108;50.142;8.724;2022-09-03T07:38:39;18.10;1.00
19892;DHT22;10108;50.142;8.724;2022-09-03T07:41:08;18.20;1.00
19892;DHT22;10108;50.142;8.724;2022-09-03T07:43:36;18.10;1.00
19892;DHT22;10108;50.142;8.724;2022-09-03T07:46:06;18.00;1.00
19892;DHT22;10108;50.142;8.724;2022-09-03T07:48:33;17.90;1.00
19892;DHT22;10108;50.142;8.724;2022-09-03T07:50:59;17.90;1.00
19892;DHT22;10108;50.142;8.724;2022-09-03T07:53:27;17.90;1.00
19892;DHT22;10108;50.142;8.724;2022-09-03T07:56:00;18.00;1.00
19892;DHT22;10108;50.142;8.724;2022-09-03T07:58:30;18.00;1.00
19892;DHT22;10108;50.142;8.724;2022-09-03T08:00:56;18.10;1.00
19892;DHT22;10108;50.142;8.724;2022-09-03T08:03:23;18.10;1.00
19892;DHT22;10108;50.142;8.724;2022-09-03T08:05:49;18.10;1.00
19892;DHT22;10108;50.142;8.724;2022-09-03T08:08:15;18.10;1.00
19892;DHT22;10108;50.142;8.724;2022-09-03T08:10:43;18.10;1.00
19892;DHT22;10108;50.142;8.724;2022-09-03T08:13:09;18.20;1.00
19892;DHT22;10108;50.142;8.724;2022-09-03T08:15:36;18.20;1.00
19892;DHT22;10108;50.142;8.724;2022-09-03T08:18:05;18.20;1.00
19892;DHT22;10108;50.142;8.724;2022-09-03T08:20:31;18.20;1.00
19892;DHT22;10108;50.142;8.724;2022-09-03T08:23:01;18.30;1.00
19892;DHT22;10108;50.142;8.724;2022-09-03T08:25:28;18.20;1.00
19892;DHT22;10108;50.142;8.724;2022-09-03T08:27:57;18.10;15.00
19892;DHT22;10108;50.142;8.724;2022-09-03T08:30:23;17.90;69.20
19892;DHT22;10108;50.142;8.724;2022-09-03T08:32:50;17.60;99.90
19892;DHT22;10108;50.142;8.724;2022-09-03T08:35:16;17.40;99.90
19892;DHT22;10108;50.142;8.724;2022-09-03T08:37:42;17.20;99.90
19892;DHT22;10108;50.142;8.724;2022-09-03T08:40:09;16.90;99.90
19892;DHT22;10108;50.142;8.724;2022-09-03T08:45:20;16.70;1.00
19892;DHT22;10108;50.142;8.724;2022-09-03T08:48:04;16.60;9.60
19892;DHT22;10108;50.142;8.724;2022-09-03T08:50:44;16.50;94.80
19892;DHT22;10108;50.142;8.724;2022-09-03T08:53:18;16.40;1.00
19892;DHT22;10108;50.142;8.724;2022-09-03T08:55:55;16.20;75.00
19892;DHT22;10108;50.142;8.724;2022-09-03T08:58:30;16.20;1.00
19892;DHT22;10108;50.142;8.724;2022-09-03T09:06:54;16.60;99.90
19892;DHT22;10108;50.142;8.724;2022-09-03T09:09:31;16.70;99.90
19892;DHT22;10108;50.142;8.724;2022-09-03T09:17:29;16.80;1.00
19892;DHT22;10108;50.142;8.724;2022-09-03T09:23:00;16.90;99.90
19892;DHT22;10108;50.142;8.724;2022-09-03T09:25:27;17.00;1.00
19892;DHT22;10108;50.142;8.724;2022-09-03T09:28:03;17.20;81.90
19892;DHT22;10108;50.142;8.724;2022-09-03T09:30:31;17.40;99.90
19892;DHT22;10108;50.142;8.724;2022-09-03T09:32:58;17.60;1.00
19892;DHT22;10108;50.142;8.724;2022-09-03T09:35:25;17.70;99.90
19892;DHT22;10108;50.142;8.724;2022-09-03T09:37:57;17.80;99.90
19892;DHT22;10108;50.142;8.724;2022-09-03T09:40:37;18.00;99.90
19892;DHT22;10108;50.142;8.724;2022-09-03T09:43:17;18.10;99.90
19892;DHT22;10108;50.142;8.724;2022-09-03T09:45:48;18.30;99.90
19892;DHT22;10108;50.142;8.724;2022-09-03T09:48:30;18.50;49.80
19892;DHT22;10108;50.142;8.724;2022-09-03T09:51:21;18.60;1.00
19892;DHT22;10108;50.142;8.724;2022-09-03T09:54:02;18.70;1.00
19892;DHT22;10108;50.142;8.724;2022-09-03T09:56:29;18.70;1.00
19892;DHT22;10108;50.142;8.724;2022-09-03T09:59:08;18.80;1.00
19892;DHT22;10108;50.142;8.724;2022-09-03T10:01:37;18.90;1.00
19892;DHT22;10108;50.142;8.724;2022-09-03T10:04:23;18.90;99.90
19892;DHT22;10108;50.142;8.724;2022-09-03T10:07:04;18.90;99.90
19892;DHT22;10108;50.142;8.724;2022-09-03T10:09:31;18.90;99.90
19892;DHT22;10108;50.142;8.724;2022-09-03T10:12:24;18.90;99.90
19892;DHT22;10108;50.142;8.724;2022-09-03T10:15:11;18.90;99.90
19892;DHT22;10108;50.142;8.724;2022-09-03T10:23:32;18.90;99.90
19892;DHT22;10108;50.142;8.724;2022-09-03T10:26:08;18.80;1.00
19892;DHT22;10108;50.142;8.724;2022-09-03T10:28:37;18.80;99.90
19892;DHT22;10108;50.142;8.724;2022-09-03T10:34:09;18.90;99.90
19892;DHT22;10108;50.142;8.724;2022-09-03T10:37:00;18.90;99.90
19892;DHT22;10108;50.142;8.724;2022-09-03T10:42:47;19.00;99.90
19892;DHT22;10108;50.142;8.724;2022-09-03T10:51:00;19.50;99.90
19892;DHT22;10108;50.142;8.724;2022-09-03T10:56:18;19.70;99.90
19892;DHT22;10108;50.142;8.724;2022-09-03T11:07:04;19.90;99.90
19892;DHT22;10108;50.142;8.724;2022-09-03T11:09:43;19.90;99.90
19892;DHT22;10108;50.142;8.724;2022-09-03T11:12:17;19.90;99.90
19892;DHT22;10108;50.142;8.724;2022-09-03T11:17:28;20.00;99.90
19892;DHT22;10108;50.142;8.724;2022-09-03T11:20:16;20.10;99.90
19892;DHT22;10108;50.142;8.724;2022-09-03T11:22:45;20.20;99.90
19892;DHT22;10108;50.142;8.724;2022-09-03T11:25:14;20.20;99.90
19892;DHT22;10108;50.142;8.724;2022-09-03T11:30:11;20.40;99.90
19892;DHT22;10108;50.142;8.724;2022-09-03T11:35:23;20.40;99.90
19892;DHT22;10108;50.142;8.724;2022-09-03T11:37:58;20.50;99.90
19892;DHT22;10108;50.142;8.724;2022-09-03T11:43:27;20.60;99.90
19892;DHT22;10108;50.142;8.724;2022-09-03T11:48:54;20.80;99.90
19892;DHT22;10108;50.142;8.724;2022-09-03T11:51:29;20.90;99.90
19892;DHT22;10108;50.142;8.724;2022-09-03T11:56:23;21.00;99.90
19892;DHT22;10108;50.142;8.724;2022-09-03T12:02:02;21.20;99.90
19892;DHT22;10108;50.142;8.724;2022-09-03T12:04:50;21.20;99.90
19892;DHT22;10108;50.142;8.724;2022-09-03T12:13:11;21.40;99.90
19892;DHT22;10108;50.142;8.724;2022-09-03T12:16:25;21.40;99.90
19892;DHT22;10108;50.142;8.724;2022-09-03T12:18:59;21.40;99.90
19892;DHT22;10108;50.142;8.724;2022-09-03T12:21:25;21.40;99.90
19892;DHT22;10108;50.142;8.724;2022-09-03T12:23:53;21.40;99.90
19892;DHT22;10108;50.142;8.724;2022-09-03T12:26:22;21.30;99.90
19892;DHT22;10108;50.142;8.724;2022-09-03T12:28:55;21.40;99.90
19892;DHT22;10108;50.142;8.724;2022-09-03T12:31:23;21.40;99.90
19892;DHT22;10108;50.142;8.724;2022-09-03T12:33:53;21.40;99.90
19892;DHT22;10108;50.142;8.724;2022-09-03T12:36:21;21.40;99.90
19892;DHT22;10108;50.142;8.724;2022-09-03T12:38:48;21.30;99.90
19892;DHT22;10108;50.142;8.724;2022-09-03T12:41:27;21.40;99.90
19892;DHT22;10108;50.142;8.724;2022-09-03T12:43:56;21.40;99.90
19892;DHT22;10108;50.142;8.724;2022-09-03T12:46:28;21.40;99.90
19892;DHT22;10108;50.142;8.724;2022-09-03T12:49:04;21.40;99.90
19892;DHT22;10108;50.142;8.724;2022-09-03T12:51:41;21.50;99.90
19892;DHT22;10108;50.142;8.724;2022-09-03T12:54:09;21.60;99.90
19892;DHT22;10108;50.142;8.724;2022-09-03T12:56:48;21.60;99.90
19892;DHT22;10108;50.142;8.724;2022-09-03T12:59:17;21.70;99.90
19892;DHT22;10108;50.142;8.724;2022-09-03T13:01:47;21.80;99.90
19892;DHT22;10108;50.142;8.724;2022-09-03T13:04:27;21.80;99.90
19892;DHT22;10108;50.142;8.724;2022-09-03T13:07:10;21.80;99.90
19892;DHT22;10108;50.142;8.724;2022-09-03T13:09:38;21.80;98.70
19892;DHT22;10108;50.142;8.724;2022-09-03T13:12:06;21.70;97.70
19892;DHT22;10108;50.142;8.724;2022-09-03T13:14:42;21.60;99.90
19892;DHT22;10108;50.142;8.724;2022-09-03T13:17:19;21.60;99.90
19892;DHT22;10108;50.142;8.724;2022-09-03T13:20:13;21.60;99.90
19892;DHT22;10108;50.142;8.724;2022-09-03T13:25:56;21.60;99.90
19892;DHT22;10108;50.142;8.724;2022-09-03T13:28:36;21.70;99.90
19892;DHT22;10108;50.142;8.724;2022-09-03T13:31:25;21.80;99.70
19892;DHT22;10108;50.142;8.724;2022-09-03T13:34:15;21.80;98.20
19892;DHT22;10108;50.142;8.724;2022-09-03T13:36:58;21.80;96.30
19892;DHT22;10108;50.142;8.724;2022-09-03T13:39:40;21.80;95.40
19892;DHT22;10108;50.142;8.724;2022-09-03T13:42:19;21.80;94.50
19892;DHT22;10108;50.142;8.724;2022-09-03T13:47:59;21.80;94.60
19892;DHT22;10108;50.142;8.724;2022-09-03T13:51:00;21.80;92.60
19892;DHT22;10108;50.142;8.724;2022-09-03T13:56:54;21.80;92.30
19892;DHT22;10108;50.142;8.724;2022-09-03T14:02:10;21.90;90.40
19892;DHT22;10108;50.142;8.724;2022-09-03T14:04:53;22.00;89.30
19892;DHT22;10108;50.142;8.724;2022-09-03T14:07:44;22.10;84.60
19892;DHT22;10108;50.142;8.724;2022-09-03T14:10:21;22.10;83.40
19892;DHT22;10108;50.142;8.724;2022-09-03T14:13:17;22.20;86.20
19892;DHT22;10108;50.142;8.724;2022-09-03T14:19:04;22.20;75.00
19892;DHT22;10108;50.142;8.724;2022-09-03T14:21:51;22.30;72.40
19892;DHT22;10108;50.142;8.724;2022-09-03T14:24:23;22.30;76.20
19892;DHT22;10108;50.142;8.724;2022-09-03T14:26:56;22.40;69.00
19892;DHT22;10108;50.142;8.724;2022-09-03T14:29:33;22.30;79.70
19892;DHT22;10108;50.142;8.724;2022-09-03T14:40:17;22.30;62.30
19892;DHT22;10108;50.142;8.724;2022-09-03T14:46:00;22.30;59.70
19892;DHT22;10108;50.142;8.724;2022-09-03T14:48:45;22.30;58.80
19892;DHT22;10108;50.142;8.724;2022-09-03T14:57:19;22.20;63.30
19892;DHT22;10108;50.142;8.724;2022-09-03T15:00:16;22.10;63.60
19892;DHT22;10108;50.142;8.724;2022-09-03T15:03:04;22.00;63.90
19892;DHT22;10108;50.142;8.724;2022-09-03T15:05:49;22.00;64.70
19892;DHT22;10108;50.142;8.724;2022-09-03T15:11:32;22.00;62.00
19892;DHT22;10108;50.142;8.724;2022-09-03T15:14:25;22.10;64.00
19892;DHT22;10108;50.142;8.724;2022-09-03T15:16:58;22.10;60.80
19892;DHT22;10108;50.142;8.724;2022-09-03T15:36:08;22.20;58.00
19892;DHT22;10108;50.142;8.724;2022-09-03T15:41:10;22.20;56.50
19892;DHT22;10108;50.142;8.724;2022-09-03T15:43:47;22.20;56.60
19892;DHT22;10108;50.142;8.724;2022-09-03T15:46:37;22.20;58.40
19892;DHT22;10108;50.142;8.724;2022-09-03T15:49:09;22.30;58.40
19892;DHT22;10108;50.142;8.724;2022-09-03T15:51:53;22.30;61.50
19892;DHT22;10108;50.142;8.724;2022-09-03T15:54:31;22.40;64.70
19892;DHT22;10108;50.142;8.724;2022-09-03T15:57:20;22.50;59.70
19892;DHT22;10108;50.142;8.724;2022-09-03T16:02:30;22.40;57.90
19892;DHT22;10108;50.142;8.724;2022-09-03T16:13:05;22.30;60.80
19892;DHT22;10108;50.142;8.724;2022-09-03T16:15:40;22.30;62.00
19892;DHT22;10108;50.142;8.724;2022-09-03T16:18:23;22.20;60.90
19892;DHT22;10108;50.142;8.724;2022-09-03T16:21:01;22.30;63.30
19892;DHT22;10108;50.142;8.724;2022-09-03T16:26:11;22.30;63.20
19892;DHT22;10108;50.142;8.724;2022-09-03T16:31:27;22.30;64.00
19892;DHT22;10108;50.142;8.724;2022-09-03T16:50:28;22.20;69.50
19892;DHT22;10108;50.142;8.724;2022-09-03T16:53:14;22.20;78.90
19892;DHT22;10108;50.142;8.724;2022-09-03T16:56:08;22.10;80.50
19892;DHT22;10108;50.142;8.724;2022-09-03T17:01:12;22.10;91.30
19892;DHT22;10108;50.142;8.724;2022-09-03T17:06:58;22.00;98.60
19892;DHT22;10108;50.142;8.724;2022-09-03T17:12:19;21.90;99.90
19892;DHT22;10108;50.142;8.724;2022-09-03T17:18:10;21.90;99.90
19892;DHT22;10108;50.142;8.724;2022-09-03T17:32:11;21.90;99.90
19892;DHT22;10108;50.142;8.724;2022-09-03T17:46:47;21.80;99.90
19892;DHT22;10108;50.142;8.724;2022-09-03T17:49:26;21.80;99.90
19892;DHT22;10108;50.142;8.724;2022-09-03T17:52:34;21.80;99.90
19892;DHT22;10108;50.142;8.724;2022-09-03T17:54:59;21.70;99.90
19892;DHT22;10108;50.142;8.724;2022-09-03T17:57:30;21.60;99.90
19892;DHT22;10108;50.142;8.724;2022-09-03T18:02:42;21.50;99.90
19892;DHT22;10108;50.142;8.724;2022-09-03T18:05:23;21.50;99.90
19892;DHT22;10108;50.142;8.724;2022-09-03T18:08:01;21.40;99.90
19892;DHT22;10108;50.142;8.724;2022-09-03T18:11:17;21.40;99.90
19892;DHT22;10108;50.142;8.724;2022-09-03T18:13:45;21.30;99.90
19892;DHT22;10108;50.142;8.724;2022-09-03T18:18:51;21.10;99.90
19892;DHT22;10108;50.142;8.724;2022-09-03T18:21:24;21.00;99.90
19892;DHT22;10108;50.142;8.724;2022-09-03T18:24:34;21.00;99.90
19892;DHT22;10108;50.142;8.724;2022-09-03T18:27:28;20.90;99.90
19892;DHT22;10108;50.142;8.724;2022-09-03T18:30:18;20.80;99.90
19892;DHT22;10108;50.142;8.724;2022-09-03T18:33:03;20.70;99.90
19892;DHT22;10108;50.142;8.724;2022-09-03T18:35:47;20.70;99.90
19892;DHT22;10108;50.142;8.724;2022-09-03T18:38:34;20.60;99.90
19892;DHT22;10108;50.142;8.724;2022-09-03T18:44:44;20.50;99.90
19892;DHT22;10108;50.142;8.724;2022-09-03T18:51:11;20.50;99.90
19892;DHT22;10108;50.142;8.724;2022-09-03T18:56:48;20.50;99.90
19892;DHT22;10108;50.142;8.724;2022-09-03T19:00:03;20.50;99.90
19892;DHT22;10108;50.142;8.724;2022-09-03T19:09:34;20.50;99.90
19892;DHT22;10108;50.142;8.724;2022-09-03T19:12:56;20.50;99.90
19892;DHT22;10108;50.142;8.724;2022-09-03T19:19:14;20.40;99.90
19892;DHT22;10108;50.142;8.724;2022-09-03T19:22:12;20.40;99.90
19892;DHT22;10108;50.142;8.724;2022-09-03T19:25:07;20.30;99.90
19892;DHT22;10108;50.142;8.724;2022-09-03T19:40:37;20.10;99.90
19892;DHT22;10108;50.142;8.724;2022-09-03T19:43:55;20.00;99.90
19892;DHT22;10108;50.142;8.724;2022-09-03T19:46:57;19.80;99.90
19892;DHT22;10108;50.142;8.724;2022-09-03T19:53:02;19.60;99.90
19892;DHT22;10108;50.142;8.724;2022-09-03T19:55:53;19.50;99.90
19892;DHT22;10108;50.142;8.724;2022-09-03T19:58:53;19.50;99.90
19892;DHT22;10108;50.142;8.724;2022-09-03T20:01:39;19.60;99.90
19892;DHT22;10108;50.142;8.724;2022-09-03T20:04:34;19.70;99.90
19892;DHT22;10108;50.142;8.724;2022-09-03T20:07:20;19.70;99.90
19892;DHT22;10108;50.142;8.724;2022-09-03T20:10:09;19.60;99.90
19892;DHT22;10108;50.142;8.724;2022-09-03T20:13:10;19.70;99.90
19892;DHT22;10108;50.142;8.724;2022-09-03T20:16:01;19.80;99.90
19892;DHT22;10108;50.142;8.724;2022-09-03T20:18:45;19.80;99.90
19892;DHT22;10108;50.142;8.724;2022-09-03T20:34:55;19.70;99.90
19892;DHT22;10108;50.142;8.724;2022-09-03T20:37:36;19.70;99.90
19892;DHT22;10108;50.142;8.724;2022-09-03T20:40:24;19.70;99.90
19892;DHT22;10108;50.142;8.724;2022-09-03T20:51:07;19.60;99.90
19892;DHT22;10108;50.142;8.724;2022-09-03T20:56:29;19.60;99.90
19892;DHT22;10108;50.142;8.724;2022-09-03T21:01:56;19.60;99.90
19892;DHT22;10108;50.142;8.724;2022-09-03T21:04:42;19.40;99.90
19892;DHT22;10108;50.142;8.724;2022-09-03T21:07:28;19.40;99.90
19892;DHT22;10108;50.142;8.724;2022-09-03T21:15:59;19.30;99.90
19892;DHT22;10108;50.142;8.724;2022-09-03T21:18:49;19.20;99.90
19892;DHT22;10108;50.142;8.724;2022-09-03T21:21:18;19.20;99.90
19892;DHT22;10108;50.142;8.724;2022-09-03T21:24:05;19.20;99.90
19892;DHT22;10108;50.142;8.724;2022-09-03T21:26:39;19.20;99.90
19892;DHT22;10108;50.142;8.724;2022-09-03T21:34:32;19.20;99.90
19892;DHT22;10108;50.142;8.724;2022-09-03T21:37:03;19.30;99.90
19892;DHT22;10108;50.142;8.724;2022-09-03T21:39:34;19.20;99.90
19892;DHT22;10108;50.142;8.724;2022-09-03T21:42:23;19.10;99.90